createdAt,value
2023-05-04T00:23:39.954Z,7.68
2023-05-04T00:55:26.211Z,7.45
2023-05-04T00:59:39.808Z,6.73
2023-05-04T01:12:45.557Z,8.78
2023-05-04T01:16:50.922Z,9.22
2023-05-04T01:20:53.873Z,8.43
2023-05-04T01:24:48.989Z,7.31
2023-05-04T01:28:38.847Z,6.58
2023-05-04T01:32:14.021Z,6.75
2023-05-04T01:36:13.679Z,7.70
2023-05-04T01:39:35.897Z,8.38
2023-05-04T01:43:32.515Z,8.90
2023-05-04T01:48:02.231Z,9.28
2023-05-04T01:51:23.533Z,8.35
2023-05-04T01:55:19.785Z,7.29
2023-05-04T01:58:57.782Z,6.58
2023-05-04T02:02:55.035Z,6.99
2023-05-04T02:06:12.369Z,7.76
2023-05-04T02:09:41.297Z,8.35
2023-05-04T02:13:10.829Z,8.81
2023-05-04T02:16:25.271Z,9.10
2023-05-04T02:20:16.774Z,8.31
2023-05-04T02:23:45.404Z,7.21
2023-05-04T02:27:37.018Z,6.44
2023-05-04T02:31:48.444Z,6.77
2023-05-04T02:35:17.757Z,7.62
2023-05-04T02:38:48.072Z,8.21
2023-05-04T02:42:15.154Z,8.61
2023-05-04T02:46:00.881Z,8.14
2023-05-04T02:49:20.532Z,6.99
2023-05-04T02:52:59.566Z,6.35
2023-05-04T02:56:20.366Z,6.45
2023-05-04T02:59:16.859Z,7.20
2023-05-04T03:03:04.145Z,7.80
2023-05-04T03:06:42.985Z,8.28
2023-05-04T03:10:13.202Z,8.61
2023-05-04T03:13:48.379Z,7.84
2023-05-04T03:17:24.675Z,6.80
2023-05-04T03:20:24.596Z,6.17
2023-05-04T03:23:45.277Z,6.56
2023-05-04T03:26:57.491Z,7.35
2023-05-04T03:30:16.371Z,7.93
2023-05-04T03:33:44.185Z,8.36
2023-05-04T03:36:35.894Z,8.77
2023-05-04T03:39:53.922Z,9.10
2023-05-04T03:43:15.919Z,8.75
2023-05-04T03:46:15.437Z,7.67
2023-05-04T03:50:05.356Z,6.93
2023-05-04T03:54:17.321Z,7.37
2023-05-04T03:57:58.213Z,8.27
2023-05-04T04:01:32.805Z,8.88
2023-05-04T04:04:42.087Z,9.30
2023-05-04T04:08:10.908Z,8.87
2023-05-04T04:11:17.070Z,8.02
2023-05-04T04:14:37.777Z,7.24
2023-05-04T04:18:37.186Z,7.27
2023-05-04T04:22:56.936Z,8.39
2023-05-04T04:27:12.666Z,9.22
2023-05-04T04:30:32.575Z,9.81
2023-05-04T14:01:17.472Z,35.23
2023-05-04T14:03:46.903Z,35.74
2023-05-04T14:06:15.475Z,35.98
2023-05-04T14:08:44.045Z,36.07
2023-05-04T14:11:12.507Z,36.22
2023-05-04T14:13:41.068Z,36.30
2023-05-04T14:16:10.470Z,36.28
2023-05-04T14:18:56.905Z,36.25
2023-05-04T14:22:22.496Z,36.31
2023-05-04T14:25:46.522Z,36.27
2023-05-04T14:28:15.926Z,36.37
2023-05-04T14:31:25.332Z,36.45
2023-05-04T14:34:13.320Z,36.56
2023-05-04T15:15:54.918Z,36.70
2023-05-04T15:18:24.364Z,36.96
2023-05-04T15:20:52.980Z,37.12
2023-05-04T15:23:21.785Z,37.41
2023-05-04T15:25:50.307Z,37.67
2023-05-04T15:28:22.818Z,37.70
2023-05-04T15:30:51.342Z,37.67
2023-05-04T15:33:19.847Z,37.70
2023-05-04T15:35:48.420Z,37.79
2023-05-04T15:38:18.344Z,38.01
2023-05-04T15:40:46.806Z,38.22
2023-05-04T15:43:15.520Z,38.28
2023-05-04T15:45:44.034Z,38.24
2023-05-04T15:48:12.655Z,37.98
2023-05-04T15:51:19.185Z,37.58
